Summerville, Oregon
Current Conditions -  °F | °C
As of 2:55 AM on Friday 19 Dec 2014 (Local Time) from KLGD Reporting Station
Broken Clouds Broken Clouds  
Wind Chill: 37°   Ceiling: 2900
Heat Index: 45°   Visibility: 10mi
Dew Point: 30°   Wind: 20mph
Humidity: 57%   Direction: 170°S
Pressure: 29.92"   Gusts: 28mph
Location:  45.49°N, 118°W
Report Text: KLGD 191055Z AUTO 17017G24KT 10SM BKN029 BKN090 07/M01 A2992 RMK AO1
Loading
Personal Weather Stations






























Interactive Weather Map New forecast layout! Learn more

10-Day Weather Forecast

Advertisements
Track Severe Weather on mobile